sensor_id;sensor_type;location;lat;lon;timestamp;P1;durP1;ratioP1;P2;durP2;ratioP2
49710;SDS011;35602;44.534;18.696;2022-11-02T00:04:42;168.87;;;142.43;;
49710;SDS011;35602;44.534;18.696;2022-11-02T00:09:43;163.60;;;137.07;;
49710;SDS011;35602;44.534;18.696;2022-11-02T00:14:43;162.10;;;138.68;;
49710;SDS011;35602;44.534;18.696;2022-11-02T00:19:44;154.07;;;133.57;;
49710;SDS011;35602;44.534;18.696;2022-11-02T00:24:45;156.45;;;133.00;;
49710;SDS011;35602;44.534;18.696;2022-11-02T00:29:46;150.12;;;129.85;;
49710;SDS011;35602;44.534;18.696;2022-11-02T00:34:46;149.75;;;128.38;;
49710;SDS011;35602;44.534;18.696;2022-11-02T00:39:47;147.65;;;126.53;;
49710;SDS011;35602;44.534;18.696;2022-11-02T00:44:48;150.60;;;129.87;;
49710;SDS011;35602;44.534;18.696;2022-11-02T00:49:49;142.13;;;122.85;;
49710;SDS011;35602;44.534;18.696;2022-11-02T00:54:50;139.37;;;118.72;;
49710;SDS011;35602;44.534;18.696;2022-11-02T00:59:50;136.68;;;116.82;;
49710;SDS011;35602;44.534;18.696;2022-11-02T01:04:51;136.35;;;117.90;;
49710;SDS011;35602;44.534;18.696;2022-11-02T01:09:52;133.48;;;113.85;;
49710;SDS011;35602;44.534;18.696;2022-11-02T01:14:53;133.18;;;117.32;;
49710;SDS011;35602;44.534;18.696;2022-11-02T01:19:54;130.87;;;111.22;;
49710;SDS011;35602;44.534;18.696;2022-11-02T01:24:54;130.82;;;113.05;;
49710;SDS011;35602;44.534;18.696;2022-11-02T01:29:55;131.27;;;111.37;;
49710;SDS011;35602;44.534;18.696;2022-11-02T01:34:56;126.43;;;110.40;;
49710;SDS011;35602;44.534;18.696;2022-11-02T01:39:57;128.12;;;111.07;;
49710;SDS011;35602;44.534;18.696;2022-11-02T01:44:57;120.65;;;103.78;;
49710;SDS011;35602;44.534;18.696;2022-11-02T01:50:11;117.60;;;100.20;;
49710;SDS011;35602;44.534;18.696;2022-11-02T01:55:19;115.35;;;98.35;;
49710;SDS011;35602;44.534;18.696;2022-11-02T02:00:23;111.62;;;98.70;;
49710;SDS011;35602;44.534;18.696;2022-11-02T02:05:24;116.47;;;98.85;;
49710;SDS011;35602;44.534;18.696;2022-11-02T02:10:26;112.82;;;99.43;;
49710;SDS011;35602;44.534;18.696;2022-11-02T02:15:30;118.62;;;99.62;;
49710;SDS011;35602;44.534;18.696;2022-11-02T02:26:19;107.63;;;94.40;;
49710;SDS011;35602;44.534;18.696;2022-11-02T02:31:42;106.93;;;91.37;;
49710;SDS011;35602;44.534;18.696;2022-11-02T02:36:52;102.87;;;89.43;;
49710;SDS011;35602;44.534;18.696;2022-11-02T02:42:21;99.25;;;85.55;;
49710;SDS011;35602;44.534;18.696;2022-11-02T02:47:34;102.80;;;87.20;;
49710;SDS011;35602;44.534;18.696;2022-11-02T02:52:41;98.57;;;86.70;;
49710;SDS011;35602;44.534;18.696;2022-11-02T02:57:46;97.05;;;84.20;;
49710;SDS011;35602;44.534;18.696;2022-11-02T03:02:47;97.70;;;82.62;;
49710;SDS011;35602;44.534;18.696;2022-11-02T03:08:04;95.22;;;80.20;;
49710;SDS011;35602;44.534;18.696;2022-11-02T03:19:05;92.80;;;79.90;;
49710;SDS011;35602;44.534;18.696;2022-11-02T03:25:15;87.47;;;76.05;;
49710;SDS011;35602;44.534;18.696;2022-11-02T03:30:21;87.03;;;74.00;;
49710;SDS011;35602;44.534;18.696;2022-11-02T03:35:31;87.40;;;74.35;;
49710;SDS011;35602;44.534;18.696;2022-11-02T03:40:44;83.25;;;71.93;;
49710;SDS011;35602;44.534;18.696;2022-11-02T03:45:49;84.72;;;71.45;;
49710;SDS011;35602;44.534;18.696;2022-11-02T03:50:56;80.82;;;67.50;;
49710;SDS011;35602;44.534;18.696;2022-11-02T03:56:01;80.00;;;68.03;;
49710;SDS011;35602;44.534;18.696;2022-11-02T04:01:07;79.03;;;67.45;;
49710;SDS011;35602;44.534;18.696;2022-11-02T04:06:09;80.95;;;65.43;;
49710;SDS011;35602;44.534;18.696;2022-11-02T04:11:12;77.93;;;65.22;;
49710;SDS011;35602;44.534;18.696;2022-11-02T04:16:32;79.45;;;65.00;;
49710;SDS011;35602;44.534;18.696;2022-11-02T04:21:33;74.62;;;63.95;;
49710;SDS011;35602;44.534;18.696;2022-11-02T04:26:34;74.03;;;64.12;;
49710;SDS011;35602;44.534;18.696;2022-11-02T04:31:34;70.90;;;61.42;;
49710;SDS011;35602;44.534;18.696;2022-11-02T04:36:35;71.43;;;60.22;;
49710;SDS011;35602;44.534;18.696;2022-11-02T04:41:36;67.53;;;57.92;;
49710;SDS011;35602;44.534;18.696;2022-11-02T04:46:43;72.60;;;59.90;;
49710;SDS011;35602;44.534;18.696;2022-11-02T04:51:44;67.45;;;57.17;;
49710;SDS011;35602;44.534;18.696;2022-11-02T04:56:44;65.18;;;54.58;;
49710;SDS011;35602;44.534;18.696;2022-11-02T05:01:45;68.30;;;56.05;;
49710;SDS011;35602;44.534;18.696;2022-11-02T05:06:46;64.50;;;54.33;;
49710;SDS011;35602;44.534;18.696;2022-11-02T05:11:47;65.22;;;55.83;;
49710;SDS011;35602;44.534;18.696;2022-11-02T05:16:47;63.20;;;55.35;;
49710;SDS011;35602;44.534;18.696;2022-11-02T05:21:48;67.32;;;55.58;;
49710;SDS011;35602;44.534;18.696;2022-11-02T05:26:49;60.22;;;51.35;;
49710;SDS011;35602;44.534;18.696;2022-11-02T05:31:50;61.67;;;52.10;;
49710;SDS011;35602;44.534;18.696;2022-11-02T05:36:51;63.15;;;53.33;;
49710;SDS011;35602;44.534;18.696;2022-11-02T05:41:52;62.53;;;53.05;;
49710;SDS011;35602;44.534;18.696;2022-11-02T05:46:53;60.17;;;50.12;;
49710;SDS011;35602;44.534;18.696;2022-11-02T05:51:53;62.83;;;52.03;;
49710;SDS011;35602;44.534;18.696;2022-11-02T05:56:55;59.10;;;49.30;;
49710;SDS011;35602;44.534;18.696;2022-11-02T06:01:56;56.70;;;49.42;;
49710;SDS011;35602;44.534;18.696;2022-11-02T06:06:57;60.92;;;49.35;;
49710;SDS011;35602;44.534;18.696;2022-11-02T06:11:57;58.72;;;49.75;;
49710;SDS011;35602;44.534;18.696;2022-11-02T06:16:58;57.58;;;48.35;;
49710;SDS011;35602;44.534;18.696;2022-11-02T06:21:59;58.70;;;48.00;;
49710;SDS011;35602;44.534;18.696;2022-11-02T06:27:00;54.40;;;46.22;;
49710;SDS011;35602;44.534;18.696;2022-11-02T06:32:01;56.55;;;46.55;;
49710;SDS011;35602;44.534;18.696;2022-11-02T06:37:01;56.22;;;46.78;;
49710;SDS011;35602;44.534;18.696;2022-11-02T06:42:02;50.85;;;43.95;;
49710;SDS011;35602;44.534;18.696;2022-11-02T06:47:03;56.45;;;47.67;;
49710;SDS011;35602;44.534;18.696;2022-11-02T06:52:04;53.92;;;46.13;;
49710;SDS011;35602;44.534;18.696;2022-11-02T06:57:05;55.70;;;46.42;;
49710;SDS011;35602;44.534;18.696;2022-11-02T07:02:07;53.42;;;44.50;;
49710;SDS011;35602;44.534;18.696;2022-11-02T07:07:08;52.70;;;45.30;;
49710;SDS011;35602;44.534;18.696;2022-11-02T07:12:08;53.00;;;43.53;;
49710;SDS011;35602;44.534;18.696;2022-11-02T07:17:09;51.22;;;43.75;;
49710;SDS011;35602;44.534;18.696;2022-11-02T07:22:10;52.60;;;44.65;;
49710;SDS011;35602;44.534;18.696;2022-11-02T07:27:11;51.85;;;43.65;;
49710;SDS011;35602;44.534;18.696;2022-11-02T07:32:12;52.28;;;43.58;;
49710;SDS011;35602;44.534;18.696;2022-11-02T07:37:12;52.65;;;44.55;;
49710;SDS011;35602;44.534;18.696;2022-11-02T07:42:13;54.90;;;43.60;;
49710;SDS011;35602;44.534;18.696;2022-11-02T07:47:14;50.63;;;42.80;;
49710;SDS011;35602;44.534;18.696;2022-11-02T07:52:15;51.30;;;43.42;;
49710;SDS011;35602;44.534;18.696;2022-11-02T07:57:16;53.05;;;43.38;;
49710;SDS011;35602;44.534;18.696;2022-11-02T08:02:16;50.50;;;42.42;;
49710;SDS011;35602;44.534;18.696;2022-11-02T08:07:17;53.15;;;43.28;;
49710;SDS011;35602;44.534;18.696;2022-11-02T08:12:18;65.95;;;45.30;;
49710;SDS011;35602;44.534;18.696;2022-11-02T08:17:19;65.45;;;46.80;;
49710;SDS011;35602;44.534;18.696;2022-11-02T08:22:20;79.15;;;50.70;;
49710;SDS011;35602;44.534;18.696;2022-11-02T08:27:21;96.82;;;62.00;;
49710;SDS011;35602;44.534;18.696;2022-11-02T08:32:22;98.30;;;63.35;;
49710;SDS011;35602;44.534;18.696;2022-11-02T08:37:23;113.22;;;72.90;;
49710;SDS011;35602;44.534;18.696;2022-11-02T08:42:24;115.05;;;73.57;;
49710;SDS011;35602;44.534;18.696;2022-11-02T08:47:25;90.82;;;62.45;;
49710;SDS011;35602;44.534;18.696;2022-11-02T08:52:26;103.12;;;67.65;;
49710;SDS011;35602;44.534;18.696;2022-11-02T08:57:27;101.93;;;69.18;;
49710;SDS011;35602;44.534;18.696;2022-11-02T09:02:28;100.03;;;68.20;;
49710;SDS011;35602;44.534;18.696;2022-11-02T09:07:29;102.05;;;67.35;;
49710;SDS011;35602;44.534;18.696;2022-11-02T09:12:29;102.95;;;69.60;;
49710;SDS011;35602;44.534;18.696;2022-11-02T09:17:31;98.87;;;68.78;;
49710;SDS011;35602;44.534;18.696;2022-11-02T09:22:32;106.57;;;70.43;;
49710;SDS011;35602;44.534;18.696;2022-11-02T09:27:33;103.15;;;70.20;;
49710;SDS011;35602;44.534;18.696;2022-11-02T09:32:33;105.80;;;69.95;;
49710;SDS011;35602;44.534;18.696;2022-11-02T09:37:35;108.60;;;71.55;;
49710;SDS011;35602;44.534;18.696;2022-11-02T09:42:40;99.95;;;69.60;;
49710;SDS011;35602;44.534;18.696;2022-11-02T09:51:36;114.65;;;76.18;;
49710;SDS011;35602;44.534;18.696;2022-11-02T09:56:41;117.78;;;78.10;;
49710;SDS011;35602;44.534;18.696;2022-11-02T10:01:49;115.20;;;78.00;;
49710;SDS011;35602;44.534;18.696;2022-11-02T10:09:52;124.15;;;81.70;;
49710;SDS011;35602;44.534;18.696;2022-11-02T10:16:19;116.88;;;81.12;;
49710;SDS011;35602;44.534;18.696;2022-11-02T10:21:32;119.57;;;79.05;;
49710;SDS011;35602;44.534;18.696;2022-11-02T10:26:35;114.60;;;79.65;;
49710;SDS011;35602;44.534;18.696;2022-11-02T10:31:42;118.53;;;81.35;;
49710;SDS011;35602;44.534;18.696;2022-11-02T10:38:20;115.40;;;82.25;;
49710;SDS011;35602;44.534;18.696;2022-11-02T10:45:14;117.07;;;78.03;;
49710;SDS011;35602;44.534;18.696;2022-11-02T10:51:07;116.22;;;78.50;;
49710;SDS011;35602;44.534;18.696;2022-11-02T10:56:18;128.68;;;86.93;;
49710;SDS011;35602;44.534;18.696;2022-11-02T11:01:46;125.75;;;81.05;;
49710;SDS011;35602;44.534;18.696;2022-11-02T11:07:27;115.78;;;80.30;;
49710;SDS011;35602;44.534;18.696;2022-11-02T11:12:29;121.35;;;80.55;;
49710;SDS011;35602;44.534;18.696;2022-11-02T11:17:40;111.62;;;78.28;;
49710;SDS011;35602;44.534;18.696;2022-11-02T11:22:41;115.18;;;77.30;;
49710;SDS011;35602;44.534;18.696;2022-11-02T11:33:01;105.50;;;74.97;;
49710;SDS011;35602;44.534;18.696;2022-11-02T11:38:08;109.40;;;77.72;;
49710;SDS011;35602;44.534;18.696;2022-11-02T11:43:33;113.80;;;77.78;;
49710;SDS011;35602;44.534;18.696;2022-11-02T11:48:38;111.60;;;77.17;;
49710;SDS011;35602;44.534;18.696;2022-11-02T11:54:13;111.97;;;79.60;;
49710;SDS011;35602;44.534;18.696;2022-11-02T11:59:30;108.22;;;76.68;;
49710;SDS011;35602;44.534;18.696;2022-11-02T12:04:47;110.68;;;77.20;;
49710;SDS011;35602;44.534;18.696;2022-11-02T12:09:51;114.15;;;82.20;;
49710;SDS011;35602;44.534;18.696;2022-11-02T12:15:27;111.43;;;79.82;;
49710;SDS011;35602;44.534;18.696;2022-11-02T12:20:55;111.15;;;78.80;;
49710;SDS011;35602;44.534;18.696;2022-11-02T12:29:22;105.97;;;76.53;;
49710;SDS011;35602;44.534;18.696;2022-11-02T12:35:18;108.07;;;75.65;;
49710;SDS011;35602;44.534;18.696;2022-11-02T12:41:29;101.28;;;73.95;;
49710;SDS011;35602;44.534;18.696;2022-11-02T12:48:04;105.28;;;72.28;;
49710;SDS011;35602;44.534;18.696;2022-11-02T13:01:43;101.53;;;70.12;;
49710;SDS011;35602;44.534;18.696;2022-11-02T13:06:47;98.35;;;71.37;;
49710;SDS011;35602;44.534;18.696;2022-11-02T13:11:56;101.10;;;72.70;;
49710;SDS011;35602;44.534;18.696;2022-11-02T13:17:06;98.70;;;73.75;;
49710;SDS011;35602;44.534;18.696;2022-11-02T13:22:19;99.97;;;72.57;;
49710;SDS011;35602;44.534;18.696;2022-11-02T13:27:33;102.07;;;72.68;;
49710;SDS011;35602;44.534;18.696;2022-11-02T13:39:08;97.18;;;71.32;;
49710;SDS011;35602;44.534;18.696;2022-11-02T13:44:20;96.20;;;69.93;;
49710;SDS011;35602;44.534;18.696;2022-11-02T13:49:38;99.60;;;71.28;;
49710;SDS011;35602;44.534;18.696;2022-11-02T13:54:48;99.32;;;74.78;;
49710;SDS011;35602;44.534;18.696;2022-11-02T13:59:53;98.57;;;72.40;;
49710;SDS011;35602;44.534;18.696;2022-11-02T14:04:54;96.25;;;70.55;;
49710;SDS011;35602;44.534;18.696;2022-11-02T14:09:55;103.75;;;72.03;;
49710;SDS011;35602;44.534;18.696;2022-11-02T14:22:08;95.10;;;69.18;;
49710;SDS011;35602;44.534;18.696;2022-11-02T14:32:38;96.05;;;67.35;;
49710;SDS011;35602;44.534;18.696;2022-11-02T14:38:20;92.70;;;65.82;;
49710;SDS011;35602;44.534;18.696;2022-11-02T14:50:28;89.97;;;63.47;;
49710;SDS011;35602;44.534;18.696;2022-11-02T14:55:32;87.57;;;63.35;;
49710;SDS011;35602;44.534;18.696;2022-11-02T15:06:17;84.93;;;61.95;;
49710;SDS011;35602;44.534;18.696;2022-11-02T15:11:45;84.57;;;57.85;;
49710;SDS011;35602;44.534;18.696;2022-11-02T15:16:50;75.85;;;56.45;;
49710;SDS011;35602;44.534;18.696;2022-11-02T15:21:53;82.03;;;60.03;;
49710;SDS011;35602;44.534;18.696;2022-11-02T15:27:42;78.22;;;56.95;;
49710;SDS011;35602;44.534;18.696;2022-11-02T15:32:48;74.65;;;57.13;;
49710;SDS011;35602;44.534;18.696;2022-11-02T15:37:58;80.97;;;57.80;;
49710;SDS011;35602;44.534;18.696;2022-11-02T16:00:41;71.78;;;55.38;;
49710;SDS011;35602;44.534;18.696;2022-11-02T16:05:45;80.97;;;59.03;;
49710;SDS011;35602;44.534;18.696;2022-11-02T16:10:47;76.40;;;57.38;;
49710;SDS011;35602;44.534;18.696;2022-11-02T16:15:48;80.22;;;58.95;;
49710;SDS011;35602;44.534;18.696;2022-11-02T16:20:49;77.53;;;58.38;;
49710;SDS011;35602;44.534;18.696;2022-11-02T16:25:51;76.93;;;57.50;;
49710;SDS011;35602;44.534;18.696;2022-11-02T16:31:01;78.20;;;58.22;;
49710;SDS011;35602;44.534;18.696;2022-11-02T16:36:23;72.30;;;57.05;;
49710;SDS011;35602;44.534;18.696;2022-11-02T16:41:27;74.87;;;56.13;;
49710;SDS011;35602;44.534;18.696;2022-11-02T16:52:12;74.05;;;56.40;;
49710;SDS011;35602;44.534;18.696;2022-11-02T16:57:20;73.32;;;56.22;;
49710;SDS011;35602;44.534;18.696;2022-11-02T17:02:33;72.40;;;55.12;;
49710;SDS011;35602;44.534;18.696;2022-11-02T17:07:43;71.55;;;55.67;;
49710;SDS011;35602;44.534;18.696;2022-11-02T17:12:49;75.00;;;57.42;;
49710;SDS011;35602;44.534;18.696;2022-11-02T17:18:13;76.07;;;58.20;;
49710;SDS011;35602;44.534;18.696;2022-11-02T17:23:31;75.90;;;56.05;;
49710;SDS011;35602;44.534;18.696;2022-11-02T17:28:43;72.18;;;55.70;;
49710;SDS011;35602;44.534;18.696;2022-11-02T17:33:45;74.07;;;56.72;;
49710;SDS011;35602;44.534;18.696;2022-11-02T17:38:46;69.65;;;55.75;;
49710;SDS011;35602;44.534;18.696;2022-11-02T17:43:47;76.12;;;58.58;;
49710;SDS011;35602;44.534;18.696;2022-11-02T17:48:48;72.82;;;57.65;;
49710;SDS011;35602;44.534;18.696;2022-11-02T17:53:49;78.95;;;59.15;;
49710;SDS011;35602;44.534;18.696;2022-11-02T17:58:50;79.85;;;59.75;;
49710;SDS011;35602;44.534;18.696;2022-11-02T18:03:51;80.80;;;58.87;;
49710;SDS011;35602;44.534;18.696;2022-11-02T18:08:51;82.68;;;62.20;;
49710;SDS011;35602;44.534;18.696;2022-11-02T18:14:18;83.83;;;62.40;;
49710;SDS011;35602;44.534;18.696;2022-11-02T18:19:18;79.18;;;60.53;;
49710;SDS011;35602;44.534;18.696;2022-11-02T18:24:19;81.15;;;60.12;;
49710;SDS011;35602;44.534;18.696;2022-11-02T18:29:20;80.72;;;60.88;;
49710;SDS011;35602;44.534;18.696;2022-11-02T18:34:21;81.40;;;61.83;;
49710;SDS011;35602;44.534;18.696;2022-11-02T18:39:21;83.72;;;62.70;;
49710;SDS011;35602;44.534;18.696;2022-11-02T18:44:22;83.12;;;63.85;;
49710;SDS011;35602;44.534;18.696;2022-11-02T18:49:23;86.12;;;65.93;;
49710;SDS011;35602;44.534;18.696;2022-11-02T18:54:24;85.47;;;64.78;;
49710;SDS011;35602;44.534;18.696;2022-11-02T18:59:25;85.47;;;64.87;;
49710;SDS011;35602;44.534;18.696;2022-11-02T19:04:26;87.53;;;67.22;;
49710;SDS011;35602;44.534;18.696;2022-11-02T19:09:27;84.55;;;63.50;;
49710;SDS011;35602;44.534;18.696;2022-11-02T19:14:40;88.85;;;66.65;;
49710;SDS011;35602;44.534;18.696;2022-11-02T19:19:43;89.10;;;67.15;;
49710;SDS011;35602;44.534;18.696;2022-11-02T19:24:45;89.15;;;66.37;;
49710;SDS011;35602;44.534;18.696;2022-11-02T19:29:46;89.62;;;67.70;;
49710;SDS011;35602;44.534;18.696;2022-11-02T19:34:47;92.12;;;67.82;;
49710;SDS011;35602;44.534;18.696;2022-11-02T19:39:48;90.78;;;68.20;;
49710;SDS011;35602;44.534;18.696;2022-11-02T19:44:49;89.32;;;65.70;;
49710;SDS011;35602;44.534;18.696;2022-11-02T19:49:49;85.10;;;67.43;;
49710;SDS011;35602;44.534;18.696;2022-11-02T19:54:50;89.75;;;69.03;;
49710;SDS011;35602;44.534;18.696;2022-11-02T19:59:51;88.35;;;66.15;;
49710;SDS011;35602;44.534;18.696;2022-11-02T20:04:52;88.05;;;67.07;;
49710;SDS011;35602;44.534;18.696;2022-11-02T20:09:52;85.28;;;65.50;;
49710;SDS011;35602;44.534;18.696;2022-11-02T20:14:53;89.62;;;67.40;;
49710;SDS011;35602;44.534;18.696;2022-11-02T20:19:54;86.25;;;64.95;;
49710;SDS011;35602;44.534;18.696;2022-11-02T20:24:55;84.40;;;64.68;;
49710;SDS011;35602;44.534;18.696;2022-11-02T20:29:56;86.45;;;65.10;;
49710;SDS011;35602;44.534;18.696;2022-11-02T20:34:56;85.72;;;67.12;;
49710;SDS011;35602;44.534;18.696;2022-11-02T20:39:57;86.30;;;65.68;;
49710;SDS011;35602;44.534;18.696;2022-11-02T20:44:58;83.93;;;64.53;;
49710;SDS011;35602;44.534;18.696;2022-11-02T20:49:59;83.43;;;63.15;;
49710;SDS011;35602;44.534;18.696;2022-11-02T20:55:00;85.53;;;64.40;;
49710;SDS011;35602;44.534;18.696;2022-11-02T21:00:00;82.12;;;64.00;;
49710;SDS011;35602;44.534;18.696;2022-11-02T21:05:01;81.80;;;63.40;;
49710;SDS011;35602;44.534;18.696;2022-11-02T21:10:04;83.68;;;62.50;;
49710;SDS011;35602;44.534;18.696;2022-11-02T21:15:06;80.07;;;62.80;;
49710;SDS011;35602;44.534;18.696;2022-11-02T21:20:08;84.28;;;66.30;;
49710;SDS011;35602;44.534;18.696;2022-11-02T21:25:09;82.75;;;64.53;;
49710;SDS011;35602;44.534;18.696;2022-11-02T21:30:11;83.32;;;63.22;;
49710;SDS011;35602;44.534;18.696;2022-11-02T21:35:12;81.05;;;62.00;;
49710;SDS011;35602;44.534;18.696;2022-11-02T21:40:13;82.65;;;63.03;;
49710;SDS011;35602;44.534;18.696;2022-11-02T21:45:14;83.10;;;63.97;;
49710;SDS011;35602;44.534;18.696;2022-11-02T21:50:15;79.50;;;61.97;;
49710;SDS011;35602;44.534;18.696;2022-11-02T21:55:15;83.50;;;63.03;;
49710;SDS011;35602;44.534;18.696;2022-11-02T22:00:16;82.93;;;63.42;;
49710;SDS011;35602;44.534;18.696;2022-11-02T22:05:17;83.43;;;62.88;;
49710;SDS011;35602;44.534;18.696;2022-11-02T22:10:56;82.70;;;62.60;;
49710;SDS011;35602;44.534;18.696;2022-11-02T22:16:04;78.82;;;60.85;;
49710;SDS011;35602;44.534;18.696;2022-11-02T22:21:10;78.28;;;60.60;;
49710;SDS011;35602;44.534;18.696;2022-11-02T22:26:13;77.90;;;59.78;;
49710;SDS011;35602;44.534;18.696;2022-11-02T22:31:19;78.72;;;61.05;;
49710;SDS011;35602;44.534;18.696;2022-11-02T22:36:26;79.25;;;60.72;;
49710;SDS011;35602;44.534;18.696;2022-11-02T22:41:30;80.38;;;60.33;;
49710;SDS011;35602;44.534;18.696;2022-11-02T22:46:42;76.15;;;59.33;;
49710;SDS011;35602;44.534;18.696;2022-11-02T22:51:45;77.15;;;59.85;;
49710;SDS011;35602;44.534;18.696;2022-11-02T22:56:47;71.62;;;56.70;;
49710;SDS011;35602;44.534;18.696;2022-11-02T23:01:48;74.60;;;58.55;;
49710;SDS011;35602;44.534;18.696;2022-11-02T23:06:50;71.50;;;56.08;;
49710;SDS011;35602;44.534;18.696;2022-11-02T23:11:51;74.40;;;58.53;;
49710;SDS011;35602;44.534;18.696;2022-11-02T23:16:51;75.43;;;57.88;;
49710;SDS011;35602;44.534;18.696;2022-11-02T23:22:03;75.35;;;58.72;;
49710;SDS011;35602;44.534;18.696;2022-11-02T23:27:23;72.47;;;56.72;;
49710;SDS011;35602;44.534;18.696;2022-11-02T23:32:24;73.90;;;57.65;;
49710;SDS011;35602;44.534;18.696;2022-11-02T23:37:25;72.22;;;55.92;;
49710;SDS011;35602;44.534;18.696;2022-11-02T23:42:26;71.28;;;55.22;;
49710;SDS011;35602;44.534;18.696;2022-11-02T23:47:27;70.30;;;54.47;;
49710;SDS011;35602;44.534;18.696;2022-11-02T23:52:47;73.68;;;55.97;;
49710;SDS011;35602;44.534;18.696;2022-11-02T23:58:06;68.80;;;55.65;;
